^^
Datos históricos de la estación: Murcia-Puente Tocinos
Diario Informe para Junio 23, 2019 Unidades:  Ingés    Métrico   Ambas
Diario Semanal Mensual Anual
  Máxima: Mínima: Promedio:
Temperatura: 65.3 °F 50.4 °F 58.3 °F
Punto de rocio: 41 °F 35.6 °F 38.8 °F
Humedad: 63% 35.7% 49%
Velocidad viento: 14.7mph 0mph 7.5mph
Racha viento: 34mph - -
Viento- - SO
Presión: 29.8 in 29.6 in -
Precipitación: 0 in    
 
 
Tabla de datos para Junio 23, 2019
Hora Temperatura Punto de rocio Presión Viento Velocidad viento Racha viento Humedad Intensidad lluvia(por hora) Nubes
00:04 53.4 °F 36.1 °F 29.8 in NO 10.2 mph 17 mph 52% 0 in
00:09 53.4 °F 36.1 °F 29.8 in ONO 9.3 mph 15.2 mph 52% 0 in
00:14 53.2 °F 36.5 °F 29.8 in Oeste 8.5 mph 15 mph 52.8% 0 in
00:19 53.2 °F 36.1 °F 29.8 in OSO 5.9 mph 10.4 mph 52.2% 0 in
00:24 52.9 °F 35.8 °F 29.8 in SO 4.7 mph 10 mph 52% 0 in
00:29 52.2 °F 35.6 °F 29.8 in SSO 4.7 mph 7 mph 53.3% 0 in
00:34 51.6 °F 35.8 °F 29.8 in SSE 4.7 mph 7 mph 54.6% 0 in
00:39 51.4 °F 36 °F 29.8 in Sur 3.8 mph 7 mph 55.4% 0 in
00:44 51.4 °F 36.3 °F 29.8 in ESE 3.1 mph 7 mph 56% 0 in
00:49 51.4 °F 36.3 °F 29.8 in SSE 3.6 mph 8.5 mph 56% 0 in
00:54 51.6 °F 36.3 °F 29.8 in SSE 4 mph 9.7 mph 55.9% 0 in
00:59 52.2 °F 36.5 °F 29.8 in Sur 4.9 mph 10 mph 55% 0 in
01:04 52.3 °F 36.1 °F 29.8 in Sur 5.2 mph 6 mph 54% 0 in
01:09 52.5 °F 36.3 °F 29.8 in SSE 4 mph 6.2 mph 54% 0 in
01:14 52.7 °F 36.1 °F 29.8 in SSE 3.1 mph 6 mph 53.3% 0 in
01:19 52.9 °F 36.1 °F 29.8 in SSE 2.4 mph 5.2 mph 53% 0 in
01:24 52.9 °F 36.3 °F 29.8 in SSE 1.8 mph 5 mph 53.3% 0 in
01:29 52.9 °F 36.3 °F 29.8 in Sur 1.8 mph 7.4 mph 53.4% 0 in
01:34 52.9 °F 36.3 °F 29.8 in OSO 1.8 mph 8.5 mph 53.3% 0 in
01:39 52.9 °F 36.5 °F 29.8 in SO 3.7 mph 9.2 mph 53.6% 0 in
01:44 52.9 °F 36.7 °F 29.8 in SSO 5.2 mph 11.5 mph 53.8% 0 in
01:49 52.9 °F 36.7 °F 29.8 in SSO 5.6 mph 12 mph 54% 0 in
01:54 52.9 °F 36.7 °F 29.8 in SSO 5.9 mph 9 mph 54% 0 in
01:59 52.5 °F 36.5 °F 29.8 in SSO 5.5 mph 9 mph 54.4% 0 in
02:04 52.5 °F 36.9 °F 29.8 in SSO 5.2 mph 7.4 mph 55% 0 in
02:09 52.5 °F 36.9 °F 29.8 in OSO 4.7 mph 8.1 mph 55% 0 in
02:14 52.5 °F 36.9 °F 29.8 in Sur 4.3 mph 8 mph 55% 0 in
02:19 52.7 °F 37 °F 29.8 in SSE 4.2 mph 8.1 mph 55% 0 in
02:24 52.7 °F 37 °F 29.8 in SSE 4 mph 9.7 mph 55% 0 in
02:29 52.5 °F 37.2 °F 29.8 in Sur 5.1 mph 10 mph 55.9% 0 in
02:34 52.7 °F 37.4 °F 29.8 in Sur 5.9 mph 10.7 mph 55.9% 0 in
02:39 53.1 °F 37.2 °F 29.8 in Sur 6.2 mph 11.8 mph 55% 0 in
02:44 53.1 °F 37.2 °F 29.8 in SSE 6.4 mph 12 mph 55% 0 in
02:49 53.1 °F 37.6 °F 29.8 in Sur 7 mph 13 mph 55.5% 0 in
02:54 53.1 °F 37.8 °F 29.8 in Sur 7.4 mph 15 mph 56% 0 in
02:59 53.1 °F 37.8 °F 29.8 in SO 7.8 mph 15 mph 56% 0 in
03:04 53.1 °F 37.8 °F 29.8 in Sur 8.1 mph 12 mph 56% 0 in
03:09 52.9 °F 37.9 °F 29.8 in Sur 6.2 mph 10.4 mph 56.9% 0 in
03:14 52.7 °F 37.9 °F 29.8 in Sur 4.7 mph 10 mph 57% 0 in
03:19 52.5 °F 37.8 °F 29.8 in SSE 5.7 mph 12.7 mph 57% 0 in
03:24 52.5 °F 37.9 °F 29.8 in SSE 6.4 mph 13 mph 57.4% 0 in
03:29 52.9 °F 38.1 °F 29.8 in Sur 7.6 mph 13 mph 57.3% 0 in
03:34 52.9 °F 38.1 °F 29.8 in Sur 8.5 mph 13 mph 57% 0 in
03:39 52.9 °F 38.1 °F 29.8 in Sur 7.9 mph 10 mph 57.2% 0 in
03:44 52.9 °F 38.3 °F 29.8 in Sur 7.4 mph 11.8 mph 57.7% 0 in
03:49 52.9 °F 38.3 °F 29.8 in SSO 6.7 mph 12 mph 57.5% 0 in
03:54 52.9 °F 38.1 °F 29.8 in SSO 6.2 mph 10 mph 57.2% 0 in
03:59 52.7 °F 38.1 °F 29.8 in SSO 5.7 mph 9 mph 57.5% 0 in
04:04 52.5 °F 38.1 °F 29.8 in SO 5.4 mph 7 mph 58% 0 in
04:09 52.3 °F 38.1 °F 29.8 in OSO 4.6 mph 7 mph 58% 0 in
04:14 52.3 °F 37.9 °F 29.8 in Oeste 4 mph 5.8 mph 58% 0 in
04:19 52.3 °F 38.3 °F 29.8 in Oeste 3.5 mph 8.1 mph 58.9% 0 in
04:24 52.3 °F 38.5 °F 29.8 in ONO 3.1 mph 8 mph 59% 0 in
04:29 52.3 °F 38.5 °F 29.8 in ONO 3.4 mph 6.4 mph 59% 0 in
04:34 52.3 °F 38.5 °F 29.8 in Oeste 3.6 mph 10.4 mph 59% 0 in
04:39 52.5 °F 38.5 °F 29.8 in ONO 4.5 mph 10 mph 59% 0 in
04:44 52.3 °F 38.5 °F 29.8 in Oeste 5.2 mph 9.2 mph 59% 0 in
04:49 52.3 °F 38.5 °F 29.8 in Oeste 5.3 mph 10.7 mph 59.3% 0 in
04:54 52.2 °F 38.7 °F 29.8 in Oeste 5.4 mph 11 mph 60% 0 in
04:59 52 °F 38.5 °F 29.8 in Oeste 5.9 mph 11.5 mph 60% 0 in
05:04 51.6 °F 38.7 °F 29.8 in Oeste 6.2 mph 12 mph 61% 0 in
05:09 51.4 °F 38.5 °F 29.8 in Oeste 6 mph 11.5 mph 61% 0 in
05:14 51.4 °F 38.5 °F 29.8 in Oeste 5.9 mph 12 mph 61.1% 0 in
05:19 51.3 °F 38.7 °F 29.8 in Oeste 5.6 mph 10 mph 62% 0 in
05:24 51.3 °F 38.7 °F 29.8 in Oeste 5.4 mph 9 mph 62% 0 in
05:29 51.1 °F 38.5 °F 29.8 in Oeste 4.8 mph 7 mph 62% 0 in
05:34 51.1 °F 38.5 °F 29.8 in OSO 4.3 mph 6 mph 62.2% 0 in
05:39 50.9 °F 38.7 °F 29.8 in OSO 3.6 mph 6.2 mph 63% 0 in
05:44 50.9 °F 38.7 °F 29.8 in OSO 3.1 mph 6 mph 63% 0 in
05:49 50.9 °F 38.7 °F 29.8 in SSO 3.4 mph 7.4 mph 63% 0 in
05:54 50.7 °F 38.7 °F 29.8 in SO 3.6 mph 7 mph 63% 0 in
05:59 51.1 °F 38.7 °F 29.8 in OSO 4 mph 7 mph 62.7% 0 in
06:04 51.3 °F 38.7 °F 29.8 in OSO 4.3 mph 6.2 mph 62% 0 in
06:09 51.4 °F 38.7 °F 29.8 in SO 3.9 mph 6.9 mph 61.5% 0 in
06:14 51.6 °F 38.7 °F 29.8 in SO 3.6 mph 7 mph 61% 0 in
06:19 52 °F 38.7 °F 29.8 in SO 3.3 mph 5.2 mph 60.5% 0 in
06:24 52.2 °F 38.7 °F 29.8 in NO 3.1 mph 5 mph 60% 0 in
06:29 51.8 °F 38.8 °F 29.8 in NO 2.4 mph 4 mph 60.9% 0 in
06:34 52 °F 38.7 °F 29.8 in Sur 1.8 mph 5.9 mph 60.4% 0 in
06:39 52.3 °F 38.7 °F 29.8 in SO 2.5 mph 6 mph 59.4% 0 in
06:44 52.7 °F 38.7 °F 29.8 in SSO 3.1 mph 7.4 mph 58.8% 0 in
06:49 53.1 °F 38.7 °F 29.8 in SSO 3.6 mph 7.4 mph 58% 0 in
06:54 53.1 °F 38.7 °F 29.8 in OSO 4 mph 7 mph 58% 0 in
06:59 53.2 °F 38.5 °F 29.8 in OSO 4.2 mph 7 mph 57.1% 0 in
07:04 53.1 °F 38.1 °F 29.8 in SO 4.3 mph 6.9 mph 57% 0 in
07:09 53.1 °F 38.7 °F 29.8 in SO 4.2 mph 7 mph 58% 0 in
07:14 52.7 °F 38.3 °F 29.8 in SO 4 mph 5.9 mph 58% 0 in
07:19 52.5 °F 38.1 °F 29.8 in SO 3.8 mph 7.4 mph 58% 0 in
07:24 52.5 °F 38.1 °F 29.8 in SO 3.6 mph 7 mph 58% 0 in
07:29 52.5 °F 38.1 °F 29.8 in SO 4.2 mph 7.4 mph 58% 0 in
07:34 52.5 °F 38.1 °F 29.8 in SO 4.7 mph 7.4 mph 58% 0 in
07:39 52.3 °F 38.1 °F 29.7 in SSO 5 mph 8.1 mph 58% 0 in
07:44 52.2 °F 37.8 °F 29.7 in SSO 5.2 mph 8.5 mph 58% 0 in
07:49 51.8 °F 37.8 °F 29.7 in Sur 5.3 mph 9.7 mph 58.7% 0 in
07:54 51.4 °F 37.6 °F 29.7 in SSO 5.4 mph 10 mph 59.2% 0 in
07:59 51.3 °F 37.8 °F 29.7 in SSO 5.7 mph 9.7 mph 60% 0 in
08:04 51.1 °F 37.8 °F 29.7 in SSO 5.9 mph 10 mph 60% 0 in
08:09 50.9 °F 37.6 °F 29.7 in SSO 6.1 mph 11.5 mph 60% 0 in
08:14 50.7 °F 37.4 °F 29.7 in SSO 6.2 mph 12 mph 60% 0 in
08:19 50.9 °F 37.4 °F 29.7 in Sur 6 mph 9 mph 60% 0 in
08:24 50.9 °F 37.4 °F 29.7 in Sur 5.9 mph 9 mph 60% 0 in
08:29 50.7 °F 37.8 °F 29.7 in SSO 5.5 mph 8.1 mph 60.9% 0 in
08:34 50.5 °F 37.6 °F 29.7 in SSO 5.2 mph 8.1 mph 61.1% 0 in
08:39 50.4 °F 37.9 °F 29.7 in SSO 4.9 mph 8.5 mph 62% 0 in
08:44 50.5 °F 37.9 °F 29.7 in SSO 4.7 mph 9 mph 62% 0 in
08:49 50.5 °F 37.8 °F 29.7 in SSO 4.3 mph 6 mph 61.1% 0 in
08:54 50.9 °F 37.9 °F 29.7 in SSO 4 mph 5 mph 61% 0 in
08:59 51.3 °F 37.9 °F 29.7 in Sur 2.7 mph 5.2 mph 60.6% 0 in
09:04 51.3 °F 37.8 °F 29.7 in SSE 2 mph 8.1 mph 60% 0 in
09:09 51.3 °F 37.8 °F 29.7 in Sur 2.7 mph 8 mph 60% 0 in
09:14 51.3 °F 38.1 °F 29.7 in SSO 3.1 mph 5 mph 60.5% 0 in
09:19 51.6 °F 38.3 °F 29.7 in SSO 2.4 mph 4.6 mph 60.4% 0 in
09:24 51.6 °F 38.3 °F 29.7 in Sur 1.8 mph 5.2 mph 60.1% 0 in
09:29 51.6 °F 38.3 °F 29.7 in NNE 1.9 mph 5 mph 60% 0 in
09:34 51.6 °F 38.5 °F 29.7 in ESE 2 mph 6.4 mph 60.6% 0 in
09:39 51.6 °F 38.7 °F 29.7 in NE 2.5 mph 6.9 mph 61% 0 in
09:44 51.6 °F 38.7 °F 29.7 in Este 2.9 mph 7 mph 61% 0 in
09:49 52 °F 38.7 °F 29.7 in ESE 3 mph 6 mph 60.4% 0 in
09:54 52.2 °F 39 °F 29.7 in Este 3.1 mph 6 mph 60.6% 0 in
09:59 52.5 °F 38.8 °F 29.7 in ESE 3.4 mph 6.2 mph 59.5% 0 in
10:04 52.9 °F 39 °F 29.7 in Este 3.6 mph 6 mph 59.3% 0 in
10:09 53.1 °F 39.2 °F 29.7 in Este 3.6 mph 6 mph 59% 0 in
10:14 53.6 °F 39.2 °F 29.7 in Este 3.6 mph 5 mph 58.2% 0 in
10:19 54.1 °F 39.2 °F 29.7 in Este 2.9 mph 4.6 mph 57% 0 in
10:24 54.7 °F 39.7 °F 29.7 in Este 2.4 mph 5 mph 56.9% 0 in
10:29 55.4 °F 39.9 °F 29.7 in Este 1.8 mph 3 mph 55.8% 0 in
10:34 56.1 °F 39.7 °F 29.7 in Este 1.4 mph 2.9 mph 54.3% 0 in
10:39 56.8 °F 39.6 °F 29.7 in Este 1.4 mph 3.5 mph 52.5% 0 in
10:44 57.6 °F 39.7 °F 29.7 in Este 1.4 mph 3 mph 51.3% 0 in
10:49 58.5 °F 39.9 °F 29.7 in Este 0.6 mph 3 mph 50.1% 0 in
10:54 58.8 °F 39.7 °F 29.7 in Calm   2.3 mph 49.2% 0 in
10:59 59.4 °F 39.7 °F 29.7 in Calm   4.6 mph 48.1% 0 in
11:04 59.4 °F 39.7 °F 29.7 in Calm   5 mph 48.3% 0 in
11:09 59.2 °F 39.9 °F 29.7 in NNE 1.1 mph 5 mph 49% 0 in
11:14 59.2 °F 39.6 °F 29.7 in NE 1.8 mph 5.9 mph 48.3% 0 in
11:19 58.8 °F 39.6 °F 29.7 in NE 2.5 mph 6.2 mph 48.7% 0 in
11:24 59 °F 39.6 °F 29.7 in ENE 3.1 mph 6.4 mph 48.6% 0 in
11:29 59.4 °F 39.6 °F 29.7 in Este 3.1 mph 7 mph 48% 0 in
11:34 59.5 °F 39.7 °F 29.7 in Este 3.1 mph 6 mph 47.7% 0 in
11:39 60.1 °F 39.7 °F 29.7 in ESE 3.4 mph 6.9 mph 47.1% 0 in
11:44 60.4 °F 39.7 °F 29.7 in ESE 3.6 mph 8.1 mph 46.6% 0 in
11:49 61 °F 39 °F 29.7 in SSO 4.2 mph 13 mph 44.4% 0 in
11:54 61.3 °F 38.5 °F 29.7 in SSO 4.7 mph 13 mph 42.7% 0 in
11:59 61.9 °F 38.5 °F 29.7 in SSO 6.9 mph 13 mph 42% 0 in
12:04 62.2 °F 38.5 °F 29.7 in SO 8.1 mph 15 mph 41.3% 0 in
12:09 62.8 °F 38.7 °F 29.7 in ONO 6.5 mph 15.2 mph 40.8% 0 in
12:14 63.9 °F 37.9 °F 29.7 in OSO 5.2 mph 18.5 mph 38.3% 0 in
12:19 64.8 °F 37.8 °F 29.7 in Oeste 6.8 mph 19.2 mph 36.9% 0 in
12:24 64.9 °F 37.4 °F 29.6 in Oeste 8.1 mph 20 mph 36% 0 in
12:29 65.1 °F 37.6 °F 29.6 in Oeste 8.4 mph 20 mph 36% 0 in
12:34 65.3 °F 37.4 °F 29.6 in OSO 8.7 mph 20.1 mph 35.7% 0 in
12:39 64.8 °F 37.4 °F 29.6 in ONO 10.2 mph 21 mph 36.2% 0 in
12:44 64.4 °F 37.6 °F 29.6 in ONO 11.2 mph 17 mph 37% 0 in
12:49 64 °F 37.4 °F 29.6 in ONO 9.1 mph 15 mph 37.5% 0 in
12:54 63.9 °F 37.8 °F 29.6 in NO 7.4 mph 20.8 mph 38% 0 in
12:59 63.9 °F 37.6 °F 29.6 in ONO 7.4 mph 21 mph 38% 0 in
13:04 63.9 °F 37.8 °F 29.6 in ONO 7.4 mph 15 mph 38% 0 in
13:09 63.9 °F 37.8 °F 29.6 in ONO 6.2 mph 11.8 mph 38% 0 in
13:14 63.9 °F 37.8 °F 29.6 in OSO 5.2 mph 12 mph 38% 0 in
13:19 64 °F 37.8 °F 29.6 in NO 5.2 mph 24.2 mph 38% 0 in
13:24 63.9 °F 37.8 °F 29.6 in ONO 5.2 mph 24 mph 38% 0 in
13:29 63.7 °F 38.1 °F 29.6 in OSO 7.1 mph 19 mph 38.7% 0 in
13:34 63.7 °F 38.3 °F 29.6 in Oeste 8.7 mph 12 mph 39% 0 in
13:39 63.9 °F 38.1 °F 29.6 in OSO 6.9 mph 20.7 mph 38.4% 0 in
13:44 64 °F 38.3 °F 29.6 in ONO 5.4 mph 21 mph 38.7% 0 in
13:49 64 °F 38.5 °F 29.6 in Oeste 7 mph 14 mph 39% 0 in
13:54 64.2 °F 38.7 °F 29.6 in ONO 8.1 mph 19.7 mph 38.9% 0 in
13:59 64.2 °F 38.1 °F 29.6 in ONO 8.8 mph 27.6 mph 38% 0 in
14:04 64 °F 38.5 °F 29.6 in Oeste 9.2 mph 28 mph 38.6% 0 in
14:09 64.2 °F 38.7 °F 29.6 in ONO 10.7 mph 23 mph 38.9% 0 in
14:14 64.4 °F 38.5 °F 29.6 in ONO 11.8 mph 29.4 mph 38.3% 0 in
14:19 64.2 °F 38.5 °F 29.6 in Oeste 12.7 mph 30 mph 38.5% 0 in
14:24 64.4 °F 38.8 °F 29.6 in Oeste 13.5 mph 25 mph 39% 0 in
14:29 64.4 °F 38.7 °F 29.6 in Oeste 11.6 mph 23 mph 38.6% 0 in
14:34 64.2 °F 38.7 °F 29.6 in ONO 10.2 mph 24.2 mph 39% 0 in
14:39 64.2 °F 38.7 °F 29.6 in Oeste 10.4 mph 24 mph 39% 0 in
14:44 64.2 °F 38.8 °F 29.6 in ONO 10.7 mph 20.7 mph 39% 0 in
14:49 64 °F 39 °F 29.6 in ONO 11 mph 21 mph 39.6% 0 in
14:54 64 °F 39.2 °F 29.6 in ONO 11.2 mph 20.8 mph 40% 0 in
14:59 64 °F 38.8 °F 29.6 in NO 9.4 mph 21 mph 39.5% 0 in
15:04 64 °F 38.8 °F 29.6 in ONO 8.5 mph 23 mph 39.5% 0 in
15:09 64 °F 38.8 °F 29.6 in Oeste 10.7 mph 26.8 mph 39.3% 0 in
15:14 64 °F 39.2 °F 29.6 in Oeste 12.5 mph 29.9 mph 40% 0 in
15:19 64 °F 39.2 °F 29.6 in Oeste 12.5 mph 30 mph 40% 0 in
15:24 64 °F 39.2 °F 29.6 in Oeste 12.5 mph 31.3 mph 40% 0 in
15:29 63.9 °F 39.2 °F 29.6 in ONO 12.8 mph 31 mph 40.2% 0 in
15:34 63.7 °F 39.6 °F 29.6 in Oeste 13 mph 26 mph 41% 0 in
15:39 63.5 °F 39.4 °F 29.6 in ONO 12.7 mph 25 mph 41% 0 in
15:44 63.5 °F 39.4 °F 29.6 in ONO 12.5 mph 22 mph 41% 0 in
15:49 63.7 °F 39.4 °F 29.6 in Oeste 11.2 mph 21.9 mph 41% 0 in
15:54 63.3 °F 39.2 °F 29.6 in Oeste 10.2 mph 23.5 mph 41% 0 in
15:59 63.3 °F 39.4 °F 29.6 in Oeste 11.7 mph 23 mph 41.4% 0 in
16:04 63.3 °F 39.7 °F 29.6 in Oeste 12.5 mph 21.9 mph 41.8% 0 in
16:09 63.3 °F 39.7 °F 29.6 in Oeste 12.5 mph 22 mph 42% 0 in
16:14 63.3 °F 39.7 °F 29.6 in Oeste 12.5 mph 26.5 mph 42% 0 in
16:19 63.1 °F 39.7 °F 29.6 in Oeste 12.1 mph 26.1 mph 42% 0 in
16:24 63.1 °F 39.7 °F 29.6 in Oeste 11.8 mph 26.5 mph 42% 0 in
16:29 63.1 °F 39.7 °F 29.6 in Oeste 12.7 mph 26.5 mph 42% 0 in
16:34 63.1 °F 39.7 °F 29.6 in Oeste 13.5 mph 20 mph 42% 0 in
16:39 63.3 °F 39.7 °F 29.6 in Oeste 11.6 mph 25.3 mph 42% 0 in
16:44 63.3 °F 39.7 °F 29.6 in ONO 10.2 mph 25.3 mph 42% 0 in
16:49 63.3 °F 39.7 °F 29.6 in Oeste 11.6 mph 25.6 mph 42% 0 in
16:54 63.1 °F 39.7 °F 29.6 in Oeste 12.5 mph 26 mph 42% 0 in
16:59 63.1 °F 39.7 °F 29.6 in Oeste 11 mph 18.4 mph 42% 0 in
17:04 63.3 °F 39.7 °F 29.6 in Oeste 10.2 mph 23 mph 42% 0 in
17:09 63.3 °F 39.9 °F 29.6 in Oeste 10.5 mph 23 mph 42% 0 in
17:14 63.5 °F 40.1 °F 29.6 in ONO 10.7 mph 23 mph 42% 0 in
17:19 63.9 °F 39.7 °F 29.6 in Oeste 12.9 mph 26.5 mph 41.2% 0 in
17:24 63.9 °F 39.7 °F 29.6 in Oeste 14.5 mph 29.9 mph 41% 0 in
17:29 63.9 °F 39.7 °F 29.6 in Oeste 14.5 mph 33.7 mph 41% 0 in
17:34 63.9 °F 39.7 °F 29.6 in Oeste 14.5 mph 34 mph 41% 0 in
17:39 63.9 °F 39.7 °F 29.6 in Oeste 14.6 mph 28 mph 41% 0 in
17:44 63.9 °F 39.7 °F 29.6 in Oeste 14.7 mph 23 mph 41% 0 in
17:49 63.9 °F 39.9 °F 29.6 in Oeste 13 mph 21.9 mph 41.3% 0 in
17:54 63.9 °F 40.1 °F 29.6 in Oeste 11.8 mph 25.3 mph 42% 0 in
17:59 63.7 °F 40.1 °F 29.6 in Oeste 11.8 mph 26.8 mph 42% 0 in
18:04 63.7 °F 40.1 °F 29.6 in Oeste 11.8 mph 27 mph 42% 0 in
18:09 63.5 °F 40.1 °F 29.6 in OSO 12.1 mph 25.3 mph 42% 0 in
18:14 63.5 °F 39.9 °F 29.6 in Oeste 12.3 mph 26.5 mph 42% 0 in
18:19 63.5 °F 39.9 °F 29.6 in Oeste 12.3 mph 26 mph 42% 0 in
18:24 63.5 °F 39.9 °F 29.6 in Oeste 12.3 mph 20 mph 42% 0 in
18:29 63.7 °F 40.1 °F 29.6 in Oeste 11.4 mph 21.3 mph 42% 0 in
18:34 63.7 °F 40.1 °F 29.6 in ONO 10.7 mph 21 mph 42% 0 in
18:39 63.7 °F 40.1 °F 29.6 in OSO 10.7 mph 23 mph 42% 0 in
18:44 63.7 °F 40.1 °F 29.6 in Oeste 10.7 mph 31.7 mph 42% 0 in
18:49 63.9 °F 40.3 °F 29.6 in Oeste 11.9 mph 32.2 mph 42% 0 in
18:54 63.7 °F 40.1 °F 29.6 in Oeste 13 mph 29 mph 42% 0 in
18:59 63.9 °F 39.9 °F 29.6 in Oeste 14 mph 27 mph 41.2% 0 in
19:04 63.9 °F 39.9 °F 29.6 in Oeste 14.5 mph 26 mph 41.4% 0 in
19:09 63.9 °F 40.1 °F 29.6 in Oeste 14 mph 27.6 mph 41.6% 0 in
19:14 63.9 °F 40.3 °F 29.6 in Oeste 13.7 mph 28 mph 42% 0 in
19:19 63.9 °F 40.3 °F 29.6 in Oeste 13.9 mph 26 mph 42% 0 in
19:24 63.9 °F 40.3 °F 29.6 in Oeste 14 mph 25.3 mph 42% 0 in
19:29 63.7 °F 40.1 °F 29.6 in Oeste 13.7 mph 23 mph 42% 0 in
19:34 63.7 °F 40.1 °F 29.6 in ONO 13.5 mph 23 mph 42% 0 in
19:39 63.3 °F 39.9 °F 29.6 in Oeste 11.6 mph 21 mph 42% 0 in
19:44 63.3 °F 40.3 °F 29.6 in Oeste 10.2 mph 19 mph 42.8% 0 in
19:49 63.1 °F 40.3 °F 29.6 in ONO 9.9 mph 20.8 mph 43% 0 in
19:54 63.1 °F 40.3 °F 29.6 in Oeste 9.7 mph 22.3 mph 43% 0 in
19:59 63.1 °F 40.3 °F 29.6 in Oeste 10 mph 22 mph 43% 0 in
20:04 63.1 °F 40.3 °F 29.6 in Oeste 10.2 mph 19.7 mph 43% 0 in
20:09 63.3 °F 40.5 °F 29.6 in ONO 10.2 mph 20 mph 43% 0 in
20:14 63.1 °F 40.3 °F 29.6 in ONO 10.2 mph 19.2 mph 43% 0 in
20:19 63.1 °F 40.3 °F 29.6 in Oeste 9.4 mph 20 mph 43% 0 in
20:24 63.1 °F 40.8 °F 29.6 in Oeste 8.7 mph 20 mph 43.8% 0 in
20:29 63.1 °F 40.8 °F 29.6 in OSO 8.7 mph 17.5 mph 44% 0 in
20:34 63.1 °F 40.8 °F 29.6 in Oeste 8.7 mph 24.6 mph 44% 0 in
20:39 63.1 °F 41 °F 29.6 in Oeste 9.4 mph 25 mph 44% 0 in
20:44 63.3 °F 41 °F 29.6 in OSO 10 mph 24 mph 44% 0 in
20:49 63.1 °F 40.8 °F 29.6 in Oeste 9.8 mph 16.1 mph 44% 0 in
20:54 63 °F 40.8 °F 29.6 in OSO 9.7 mph 17.3 mph 44% 0 in
20:59 63.1 °F 40.8 °F 29.6 in Oeste 9.1 mph 17.3 mph 44% 0 in
21:04 63.1 °F 40.8 °F 29.6 in Oeste 8.7 mph 19.2 mph 44% 0 in
21:09 63.1 °F 40.8 °F 29.6 in Oeste 8.6 mph 19 mph 44% 0 in
21:14 63 °F 40.8 °F 29.6 in Oeste 8.5 mph 25.3 mph 44% 0 in
21:19 63.1 °F 40.8 °F 29.6 in Oeste 9.9 mph 25 mph 44% 0 in
21:24 63.1 °F 40.8 °F 29.6 in Oeste 11.2 mph 24.6 mph 43.9% 0 in
21:29 63.3 °F 40.5 °F 29.6 in Oeste 12.7 mph 25 mph 43.1% 0 in
21:34 63.3 °F 40.5 °F 29.6 in Oeste 14 mph 25 mph 43% 0 in
21:39 63.3 °F 40.5 °F 29.6 in Oeste 13.7 mph 25 mph 43% 0 in
21:44 63.3 °F 40.5 °F 29.6 in Oeste 13.5 mph 22 mph 43% 0 in
21:49 63.3 °F 40.5 °F 29.6 in ONO 12.9 mph 22 mph 43% 0 in
21:54 63.3 °F 40.5 °F 29.6 in Oeste 12.5 mph 26.1 mph 43% 0 in
21:59 63.5 °F 40.6 °F 29.6 in Oeste 13.2 mph 26 mph 43% 0 in
22:04 63.3 °F 40.5 °F 29.6 in Oeste 13.7 mph 25 mph 43% 0 in
22:09 63.1 °F 40.3 °F 29.6 in Oeste 12.1 mph 22 mph 43% 0 in
22:14 63.1 °F 40.3 °F 29.6 in Oeste 10.7 mph 19.2 mph 43% 0 in
22:19 63.1 °F 40.3 °F 29.6 in Oeste 11.1 mph 19 mph 43% 0 in
22:24 63.1 °F 40.3 °F 29.6 in Oeste 11.4 mph 18 mph 43.1% 0 in
22:29 63 °F 40.6 °F 29.6 in ONO 9.9 mph 16 mph 44% 0 in
22:34 63 °F 40.6 °F 29.6 in Oeste 8.7 mph 15.2 mph 44% 0 in
22:39 63 °F 40.6 °F 29.6 in Oeste 8.7 mph 18.5 mph 43.9% 0 in
22:44 63 °F 40.6 °F 29.6 in ONO 8.7 mph 19 mph 44% 0 in
22:49 62.8 °F 40.5 °F 29.6 in Oeste 9 mph 16.1 mph 44% 0 in
22:54 62.8 °F 40.5 °F 29.6 in Oeste 9.2 mph 16 mph 44% 0 in
22:59 62.6 °F 40.5 °F 29.6 in Oeste 8.8 mph 16.3 mph 44% 0 in
23:04 62.8 °F 40.5 °F 29.6 in Oeste 8.5 mph 17.5 mph 44% 0 in
23:09 62.4 °F 40.3 °F 29.6 in Oeste 8.6 mph 17 mph 44% 0 in
23:14 62.4 °F 40.3 °F 29.6 in Oeste 8.7 mph 18.4 mph 44% 0 in
23:19 62.6 °F 40.3 °F 29.6 in Oeste 8.7 mph 18 mph 44% 0 in
23:24 62.8 °F 40.1 °F 29.6 in Oeste 8.7 mph 20.7 mph 43.4% 0 in
23:29 62.8 °F 40.3 °F 29.6 in Oeste 9 mph 21 mph 43.6% 0 in
23:34 62.8 °F 40.1 °F 29.6 in Oeste 9.2 mph 18.4 mph 43.2% 0 in
23:39 62.8 °F 39.9 °F 29.6 in Oeste 9.2 mph 18.5 mph 43% 0 in
23:44 63 °F 40.1 °F 29.6 in Oeste 9.2 mph 21.9 mph 43% 0 in
23:49 63 °F 40.1 °F 29.6 in Oeste 10.6 mph 22 mph 43% 0 in
23:54 63 °F 40.1 °F 29.6 in Oeste 11.8 mph 21 mph 43% 0 in
23:59 63 °F 40.1 °F 29.6 in OSO 10.2 mph 17.3 mph 43% 0 in
Murcia-Puente Tocinos, España
Compliments of Weather Underground - 2.75 mb

La estación de MeteoMurcia.com, publica sus datos en los siguientes proyectos:

Weather Underground PWS IMURCIAP2 Meteoclimatic www.awekas.at

W3Counter
Web Analytics